TAP756 LPPT-EKCH
Flight info
| Callsign | TAP756 |
|---|---|
| Flight time | 3h 22m |
| Altitude | 34000 |
| Route | IXIDA DCT TOSDI DCT ZMR DCT NUBLO DCT RONSI DCT DELOG DCT DIDIG/N0446F360 DCT USODA DCT ERCUT DCT DITAL UN873 BAZOS DCT BELDI DCT VEKIN DCT ADUTO N873 VICOT/N0435F350 DCT SUSET DCT DOSUR P729 TUDLO |
| Aircraft | A321/M-SDE3FGHIRWY/LB1 |
Departure
| Time | 2026-05-04 14:26 |
|---|---|
| Airport | Lisbon Humberto Delgado Airport (LPPT) |
Arrival
| Time | 2026-05-04 17:49 |
|---|---|
| Airport | Copenhagen Kastrup Airport (EKCH) |
| Time | Latitude | Longitude | Altitude | Speed | Heading |
|---|---|---|---|---|---|
| 2026-05-04 13:49 | 38.77027 | -9.13094 | 335 ft | 0 kts | 78° |
| 2026-05-04 14:17 | 38.77027 | -9.13095 | 337 ft | 1 kts | 77° |
| 2026-05-04 14:17 | 38.77022 | -9.13126 | 333 ft | 4 kts | 81° |
| 2026-05-04 14:17 | 38.77029 | -9.13179 | 338 ft | 1 kts | 167° |
| 2026-05-04 14:18 | 38.77030 | -9.13180 | 338 ft | 0 kts | 168° |
| 2026-05-04 14:20 | 38.77024 | -9.13178 | 337 ft | 5 kts | 168° |
| 2026-05-04 14:21 | 38.76892 | -9.13142 | 339 ft | 14 kts | 168° |
| 2026-05-04 14:21 | 38.76795 | -9.13130 | 338 ft | 8 kts | 208° |
| 2026-05-04 14:21 | 38.76777 | -9.13188 | 340 ft | 7 kts | 257° |
| 2026-05-04 14:21 | 38.76764 | -9.13267 | 341 ft | 10 kts | 258° |
| 2026-05-04 14:22 | 38.76729 | -9.13392 | 345 ft | 17 kts | 228° |
| 2026-05-04 14:22 | 38.76655 | -9.13490 | 352 ft | 14 kts | 248° |
| 2026-05-04 14:22 | 38.76633 | -9.13613 | 345 ft | 13 kts | 258° |
| 2026-05-04 14:22 | 38.76612 | -9.13743 | 353 ft | 17 kts | 258° |
| 2026-05-04 14:23 | 38.76541 | -9.14038 | 352 ft | 17 kts | 229° |
| 2026-05-04 14:23 | 38.76498 | -9.14171 | 351 ft | 16 kts | 277° |
| 2026-05-04 14:23 | 38.76526 | -9.14270 | 338 ft | 6 kts | 292° |
| 2026-05-04 14:24 | 38.76534 | -9.14293 | 335 ft | 1 kts | 292° |
| 2026-05-04 14:24 | 38.76534 | -9.14294 | 335 ft | 0 kts | 292° |
| 2026-05-04 14:24 | 38.76538 | -9.14306 | 333 ft | 5 kts | 292° |
| 2026-05-04 14:25 | 38.76574 | -9.14405 | 332 ft | 13 kts | 311° |
| 2026-05-04 14:25 | 38.76622 | -9.14400 | 333 ft | 0 kts | 21° |
| 2026-05-04 14:25 | 38.76659 | -9.14380 | 335 ft | 26 kts | 22° |
| 2026-05-04 14:26 | 38.77045 | -9.14174 | 352 ft | 91 kts | 22° |
| 2026-05-04 14:26 | 38.77795 | -9.13773 | 363 ft | 141 kts | 22° |
| 2026-05-04 14:26 | 38.78809 | -9.13219 | 571 ft | 163 kts | 22° |
| 2026-05-04 14:26 | 38.79824 | -9.12640 | 1378 ft | 159 kts | 16° |
| 2026-05-04 14:27 | 38.80885 | -9.12074 | 1698 ft | 175 kts | 17° |
| 2026-05-04 14:27 | 38.82050 | -9.11359 | 1817 ft | 200 kts | 27° |
| 2026-05-04 14:27 | 38.83251 | -9.10354 | 2026 ft | 214 kts | 23° |
| 2026-05-04 14:27 | 38.84589 | -9.09329 | 2170 ft | 236 kts | 25° |
| 2026-05-04 14:28 | 38.86053 | -9.08219 | 2656 ft | 248 kts | 26° |
| 2026-05-04 14:28 | 38.87561 | -9.07073 | 3343 ft | 253 kts | 27° |
| 2026-05-04 14:28 | 38.89080 | -9.05915 | 4126 ft | 255 kts | 27° |
| 2026-05-04 14:28 | 38.90501 | -9.04488 | 4765 ft | 265 kts | 40° |
| 2026-05-04 14:29 | 38.93230 | -9.01254 | 6183 ft | 270 kts | 39° |
| 2026-05-04 14:29 | 38.96049 | -8.97976 | 7521 ft | 277 kts | 40° |
| 2026-05-04 14:30 | 38.97486 | -8.96299 | 8181 ft | 281 kts | 39° |
| 2026-05-04 14:30 | 38.98936 | -8.94605 | 8859 ft | 283 kts | 39° |
| 2026-05-04 14:30 | 39.01904 | -8.91169 | 10106 ft | 291 kts | 39° |
| 2026-05-04 14:31 | 39.03410 | -8.89414 | 10682 ft | 295 kts | 38° |
| 2026-05-04 14:31 | 39.06518 | -8.85773 | 11480 ft | 316 kts | 39° |
| 2026-05-04 14:32 | 39.09970 | -8.81734 | 11778 ft | 352 kts | 39° |
| 2026-05-04 14:32 | 39.11799 | -8.79585 | 12208 ft | 359 kts | 39° |
| 2026-05-04 14:32 | 39.13653 | -8.77400 | 12724 ft | 364 kts | 39° |
| 2026-05-04 14:32 | 39.15528 | -8.75190 | 13258 ft | 367 kts | 39° |
| 2026-05-04 14:33 | 39.17367 | -8.72860 | 13790 ft | 375 kts | 45° |
| 2026-05-04 14:33 | 39.19093 | -8.70325 | 14266 ft | 379 kts | 45° |
| 2026-05-04 14:33 | 39.20845 | -8.67762 | 14736 ft | 383 kts | 45° |
| 2026-05-04 14:33 | 39.22611 | -8.65180 | 15219 ft | 386 kts | 45° |
| 2026-05-04 14:34 | 39.24395 | -8.62569 | 15678 ft | 389 kts | 45° |
| 2026-05-04 14:34 | 39.26192 | -8.59937 | 16152 ft | 393 kts | 45° |
| 2026-05-04 14:34 | 39.28001 | -8.57282 | 16607 ft | 396 kts | 45° |
| 2026-05-04 14:34 | 39.29823 | -8.54601 | 17066 ft | 399 kts | 45° |
| 2026-05-04 14:35 | 39.31661 | -8.51895 | 17509 ft | 402 kts | 45° |
| 2026-05-04 14:35 | 39.33511 | -8.49168 | 17930 ft | 406 kts | 45° |
| 2026-05-04 14:35 | 39.34746 | -8.47348 | 18217 ft | 408 kts | 45° |
| 2026-05-04 14:35 | 39.36648 | -8.44547 | 18631 ft | 411 kts | 45° |
| 2026-05-04 14:36 | 39.38537 | -8.41763 | 19009 ft | 413 kts | 45° |
| 2026-05-04 14:36 | 39.40410 | -8.38996 | 19382 ft | 416 kts | 45° |
| 2026-05-04 14:36 | 39.42316 | -8.36177 | 19748 ft | 418 kts | 45° |
| 2026-05-04 14:36 | 39.44259 | -8.33303 | 20087 ft | 420 kts | 45° |
| 2026-05-04 14:37 | 39.46163 | -8.30486 | 20420 ft | 422 kts | 45° |
| 2026-05-04 14:37 | 39.48097 | -8.27617 | 20756 ft | 425 kts | 45° |
| 2026-05-04 14:37 | 39.50046 | -8.24725 | 21086 ft | 427 kts | 45° |
| 2026-05-04 14:37 | 39.52004 | -8.21820 | 21446 ft | 429 kts | 45° |
| 2026-05-04 14:38 | 39.53972 | -8.18897 | 21768 ft | 432 kts | 45° |
| 2026-05-04 14:38 | 39.55944 | -8.15963 | 22120 ft | 434 kts | 45° |
| 2026-05-04 14:38 | 39.57933 | -8.12999 | 22461 ft | 436 kts | 45° |
| 2026-05-04 14:38 | 39.59976 | -8.10088 | 22816 ft | 437 kts | 42° |
| 2026-05-04 14:39 | 39.62113 | -8.07285 | 23167 ft | 438 kts | 40° |
| 2026-05-04 14:39 | 39.64315 | -8.04549 | 23497 ft | 440 kts | 39° |
| 2026-05-04 14:39 | 39.66554 | -8.01830 | 23790 ft | 442 kts | 38° |
| 2026-05-04 14:40 | 39.71040 | -7.96326 | 24346 ft | 446 kts | 39° |
| 2026-05-04 14:40 | 39.73278 | -7.93512 | 24620 ft | 449 kts | 40° |
| 2026-05-04 14:40 | 39.75514 | -7.90664 | 24906 ft | 451 kts | 40° |
| 2026-05-04 14:40 | 39.77749 | -7.87791 | 25197 ft | 453 kts | 40° |
| 2026-05-04 14:41 | 39.79995 | -7.84896 | 25447 ft | 456 kts | 40° |
| 2026-05-04 14:41 | 39.82254 | -7.81991 | 25718 ft | 458 kts | 40° |
| 2026-05-04 14:41 | 39.86813 | -7.76156 | 26240 ft | 462 kts | 39° |
| 2026-05-04 14:42 | 39.91418 | -7.70271 | 26746 ft | 466 kts | 39° |
| 2026-05-04 14:42 | 39.93730 | -7.67310 | 26999 ft | 467 kts | 39° |
| 2026-05-04 14:42 | 39.96052 | -7.64331 | 27267 ft | 469 kts | 39° |
| 2026-05-04 14:43 | 39.98380 | -7.61338 | 27505 ft | 471 kts | 39° |
| 2026-05-04 14:43 | 40.00718 | -7.58328 | 27778 ft | 474 kts | 40° |
| 2026-05-04 14:43 | 40.03068 | -7.55301 | 28034 ft | 476 kts | 40° |
| 2026-05-04 14:43 | 40.05426 | -7.52262 | 28272 ft | 478 kts | 40° |
| 2026-05-04 14:44 | 40.07793 | -7.49209 | 28497 ft | 479 kts | 40° |
| 2026-05-04 14:44 | 40.10173 | -7.46132 | 28717 ft | 481 kts | 40° |
| 2026-05-04 14:44 | 40.12524 | -7.43090 | 28922 ft | 483 kts | 40° |
| 2026-05-04 14:44 | 40.14949 | -7.39949 | 29171 ft | 485 kts | 40° |
| 2026-05-04 14:45 | 40.17318 | -7.36876 | 29394 ft | 487 kts | 40° |
| 2026-05-04 14:45 | 40.19723 | -7.33750 | 29609 ft | 488 kts | 40° |
| 2026-05-04 14:45 | 40.22133 | -7.30616 | 29808 ft | 490 kts | 40° |
| 2026-05-04 14:45 | 40.24559 | -7.27464 | 29976 ft | 491 kts | 40° |
| 2026-05-04 14:46 | 40.26990 | -7.24302 | 30152 ft | 493 kts | 40° |
| 2026-05-04 14:46 | 40.29421 | -7.21132 | 30338 ft | 494 kts | 40° |
| 2026-05-04 14:46 | 40.31854 | -7.17957 | 30561 ft | 493 kts | 40° |
| 2026-05-04 14:46 | 40.34286 | -7.14785 | 30781 ft | 493 kts | 40° |
| 2026-05-04 14:47 | 40.36717 | -7.11609 | 30985 ft | 493 kts | 40° |
| 2026-05-04 14:47 | 40.39145 | -7.08435 | 31183 ft | 493 kts | 40° |
| 2026-05-04 14:47 | 40.41576 | -7.05251 | 31402 ft | 493 kts | 40° |
| 2026-05-04 14:47 | 40.43999 | -7.02072 | 31614 ft | 493 kts | 40° |
| 2026-05-04 14:48 | 40.46422 | -6.98890 | 31817 ft | 493 kts | 40° |
| 2026-05-04 14:48 | 40.48841 | -6.95706 | 32023 ft | 493 kts | 40° |
| 2026-05-04 14:48 | 40.51263 | -6.92519 | 32237 ft | 492 kts | 40° |
| 2026-05-04 14:48 | 40.53683 | -6.89336 | 32453 ft | 492 kts | 40° |
| 2026-05-04 14:49 | 40.56102 | -6.86151 | 32659 ft | 492 kts | 40° |
| 2026-05-04 14:49 | 40.58517 | -6.82963 | 32861 ft | 492 kts | 40° |
| 2026-05-04 14:49 | 40.60930 | -6.79770 | 33047 ft | 492 kts | 40° |
| 2026-05-04 14:49 | 40.63343 | -6.76573 | 33241 ft | 492 kts | 40° |
| 2026-05-04 14:50 | 40.65754 | -6.73374 | 33440 ft | 492 kts | 40° |
| 2026-05-04 14:50 | 40.68167 | -6.70174 | 33625 ft | 492 kts | 40° |
| 2026-05-04 14:50 | 40.70580 | -6.66974 | 33818 ft | 492 kts | 40° |
| 2026-05-04 14:50 | 40.72989 | -6.63776 | 33972 ft | 490 kts | 40° |
| 2026-05-04 14:51 | 40.77760 | -6.57420 | 33974 ft | 486 kts | 41° |
| 2026-05-04 14:51 | 40.82505 | -6.51087 | 33971 ft | 485 kts | 41° |
| 2026-05-04 14:52 | 40.87248 | -6.44747 | 33975 ft | 485 kts | 41° |
| 2026-05-04 14:52 | 40.91991 | -6.38395 | 33977 ft | 486 kts | 41° |
| 2026-05-04 14:53 | 40.96736 | -6.32032 | 34000 ft | 486 kts | 41° |
| 2026-05-04 14:53 | 41.01494 | -6.25780 | 33980 ft | 485 kts | 38° |
| 2026-05-04 14:54 | 41.06497 | -6.19815 | 33975 ft | 483 kts | 36° |
| 2026-05-04 14:54 | 41.11571 | -6.13954 | 33975 ft | 484 kts | 36° |
| 2026-05-04 14:55 | 41.16602 | -6.08014 | 33964 ft | 484 kts | 37° |
| 2026-05-04 14:55 | 41.21596 | -6.01998 | 33993 ft | 485 kts | 38° |
| 2026-05-04 14:56 | 41.26579 | -5.95968 | 33986 ft | 485 kts | 38° |
| 2026-05-04 14:56 | 41.31574 | -5.89945 | 33981 ft | 484 kts | 38° |
| 2026-05-04 14:57 | 41.36574 | -5.83935 | 33979 ft | 484 kts | 38° |
| 2026-05-04 14:57 | 41.41566 | -5.77907 | 33969 ft | 484 kts | 38° |
| 2026-05-04 14:58 | 41.46539 | -5.71866 | 33979 ft | 484 kts | 38° |
| 2026-05-04 14:58 | 41.51558 | -5.65899 | 33973 ft | 480 kts | 33° |
| 2026-05-04 14:59 | 41.57275 | -5.61557 | 33974 ft | 469 kts | 17° |
| 2026-05-04 15:00 | 41.66308 | -5.56505 | 33996 ft | 469 kts | 18° |
| 2026-05-04 15:00 | 41.72320 | -5.53103 | 33985 ft | 469 kts | 18° |
| 2026-05-04 15:01 | 41.81336 | -5.47977 | 33986 ft | 469 kts | 18° |
| 2026-05-04 15:01 | 41.87340 | -5.44572 | 33994 ft | 469 kts | 18° |
| 2026-05-04 15:02 | 41.93350 | -5.41161 | 33999 ft | 469 kts | 18° |
| 2026-05-04 15:02 | 41.99364 | -5.37741 | 33979 ft | 469 kts | 18° |
| 2026-05-04 15:03 | 42.05370 | -5.34310 | 33976 ft | 469 kts | 19° |
| 2026-05-04 15:03 | 42.11327 | -5.30885 | 33985 ft | 469 kts | 19° |
| 2026-05-04 15:04 | 42.17333 | -5.27438 | 33972 ft | 469 kts | 19° |
| 2026-05-04 15:04 | 42.23343 | -5.23981 | 33969 ft | 470 kts | 19° |
| 2026-05-04 15:05 | 42.29351 | -5.20529 | 33988 ft | 469 kts | 19° |
| 2026-05-04 15:05 | 42.35361 | -5.17068 | 33978 ft | 470 kts | 19° |
| 2026-05-04 15:06 | 42.41370 | -5.13587 | 33976 ft | 470 kts | 20° |
| 2026-05-04 15:07 | 42.50382 | -5.08344 | 33988 ft | 470 kts | 20° |
| 2026-05-04 15:07 | 42.56397 | -5.04854 | 33973 ft | 470 kts | 20° |
| 2026-05-04 15:08 | 42.62414 | -5.01359 | 33972 ft | 471 kts | 20° |
| 2026-05-04 15:08 | 42.68432 | -4.97838 | 33976 ft | 471 kts | 20° |
| 2026-05-04 15:09 | 42.74455 | -4.94307 | 33965 ft | 471 kts | 20° |
| 2026-05-04 15:09 | 42.80481 | -4.90774 | 33975 ft | 472 kts | 20° |
| 2026-05-04 15:10 | 42.89533 | -4.85454 | 33996 ft | 473 kts | 20° |
| 2026-05-04 15:11 | 42.98589 | -4.80114 | 34013 ft | 473 kts | 21° |
| 2026-05-04 15:11 | 43.04627 | -4.76543 | 34017 ft | 472 kts | 21° |
| 2026-05-04 15:12 | 43.10655 | -4.72956 | 34021 ft | 472 kts | 21° |
| 2026-05-04 15:12 | 43.16683 | -4.69360 | 34048 ft | 472 kts | 21° |
| 2026-05-04 15:13 | 43.22706 | -4.65778 | 34042 ft | 472 kts | 21° |
| 2026-05-04 15:13 | 43.28722 | -4.62197 | 34042 ft | 471 kts | 21° |
| 2026-05-04 15:14 | 43.34738 | -4.58598 | 34057 ft | 472 kts | 22° |
| 2026-05-04 15:14 | 43.40748 | -4.54992 | 34034 ft | 471 kts | 22° |
| 2026-05-04 15:15 | 43.46755 | -4.51375 | 34031 ft | 471 kts | 22° |
| 2026-05-04 15:15 | 43.52767 | -4.47754 | 34030 ft | 472 kts | 22° |
| 2026-05-04 15:16 | 43.61789 | -4.42322 | 34034 ft | 472 kts | 22° |
| 2026-05-04 15:17 | 43.70813 | -4.36862 | 34028 ft | 472 kts | 22° |
| 2026-05-04 15:17 | 43.79827 | -4.31368 | 34034 ft | 472 kts | 22° |
| 2026-05-04 15:18 | 43.85837 | -4.27698 | 34031 ft | 472 kts | 22° |
| 2026-05-04 15:19 | 43.94850 | -4.22208 | 34020 ft | 472 kts | 22° |
| 2026-05-04 15:19 | 44.03857 | -4.16691 | 34023 ft | 471 kts | 23° |
| 2026-05-04 15:20 | 44.08841 | -4.13622 | 34021 ft | 471 kts | 23° |
| 2026-05-04 15:20 | 44.14838 | -4.09931 | 34020 ft | 471 kts | 23° |
| 2026-05-04 15:21 | 44.20830 | -4.06232 | 34026 ft | 471 kts | 23° |
| 2026-05-04 15:22 | 44.29811 | -4.00664 | 34014 ft | 471 kts | 23° |
| 2026-05-04 15:22 | 44.38201 | -3.93599 | 34013 ft | 470 kts | 35° |
| 2026-05-04 15:23 | 44.43568 | -3.88368 | 34013 ft | 470 kts | 35° |
| 2026-05-04 15:23 | 44.48938 | -3.83129 | 34010 ft | 470 kts | 35° |
| 2026-05-04 15:24 | 44.59649 | -3.72633 | 34017 ft | 469 kts | 36° |
| 2026-05-04 15:25 | 44.64992 | -3.67379 | 34006 ft | 468 kts | 36° |
| 2026-05-04 15:26 | 44.72952 | -3.59525 | 34001 ft | 468 kts | 36° |
| 2026-05-04 15:26 | 44.80940 | -3.51619 | 33998 ft | 467 kts | 36° |
| 2026-05-04 15:27 | 44.88917 | -3.43706 | 33997 ft | 467 kts | 36° |
| 2026-05-04 15:28 | 44.96871 | -3.35755 | 33990 ft | 467 kts | 36° |
| 2026-05-04 15:29 | 45.04820 | -3.27802 | 33991 ft | 467 kts | 36° |
| 2026-05-04 15:30 | 45.23334 | -3.09206 | 33992 ft | 465 kts | 37° |
| 2026-05-04 15:31 | 45.31252 | -3.01202 | 33965 ft | 466 kts | 37° |
| 2026-05-04 15:32 | 45.44423 | -2.87798 | 33972 ft | 467 kts | 37° |
| 2026-05-04 15:34 | 45.57638 | -2.74297 | 33986 ft | 467 kts | 37° |
| 2026-05-04 15:34 | 45.65560 | -2.66163 | 33968 ft | 467 kts | 37° |
| 2026-05-04 15:35 | 45.73466 | -2.57996 | 33972 ft | 467 kts | 37° |
| 2026-05-04 15:36 | 45.81374 | -2.49822 | 33977 ft | 467 kts | 37° |
| 2026-05-04 15:36 | 45.86637 | -2.44364 | 33979 ft | 467 kts | 37° |
| 2026-05-04 15:37 | 45.91897 | -2.38881 | 33977 ft | 467 kts | 38° |
| 2026-05-04 15:37 | 45.97159 | -2.33405 | 33951 ft | 467 kts | 38° |
| 2026-05-04 15:38 | 46.02396 | -2.27938 | 33950 ft | 468 kts | 38° |
| 2026-05-04 15:38 | 46.07735 | -2.22438 | 33954 ft | 470 kts | 36° |
| 2026-05-04 15:39 | 46.13167 | -2.17305 | 33955 ft | 470 kts | 34° |
| 2026-05-04 15:40 | 46.21434 | -2.09683 | 33978 ft | 472 kts | 34° |
| 2026-05-04 15:40 | 46.24201 | -2.07070 | 34097 ft | 474 kts | 35° |
| 2026-05-04 15:40 | 46.26959 | -2.04438 | 34245 ft | 475 kts | 35° |
| 2026-05-04 15:40 | 46.29724 | -2.01791 | 34417 ft | 476 kts | 35° |
| 2026-05-04 15:41 | 46.32482 | -1.99151 | 34569 ft | 476 kts | 35° |
| 2026-05-04 15:41 | 46.35248 | -1.96500 | 34699 ft | 477 kts | 35° |
| 2026-05-04 15:41 | 46.38016 | -1.93849 | 34869 ft | 477 kts | 35° |
| 2026-05-04 15:41 | 46.40786 | -1.91198 | 35054 ft | 477 kts | 35° |
| 2026-05-04 15:42 | 46.43552 | -1.88553 | 35229 ft | 477 kts | 35° |
| 2026-05-04 15:42 | 46.46320 | -1.85905 | 35401 ft | 476 kts | 35° |
| 2026-05-04 15:42 | 46.49083 | -1.83257 | 35569 ft | 476 kts | 34° |
| 2026-05-04 15:42 | 46.51847 | -1.80603 | 35739 ft | 476 kts | 34° |
| 2026-05-04 15:43 | 46.54602 | -1.77949 | 35902 ft | 475 kts | 35° |
| 2026-05-04 15:43 | 46.60103 | -1.72636 | 35973 ft | 473 kts | 34° |
| 2026-05-04 15:44 | 46.65574 | -1.67351 | 35974 ft | 472 kts | 34° |
| 2026-05-04 15:44 | 46.71039 | -1.62051 | 35959 ft | 472 kts | 35° |
| 2026-05-04 15:45 | 46.76508 | -1.56734 | 35976 ft | 473 kts | 35° |
| 2026-05-04 15:45 | 46.81986 | -1.51402 | 35971 ft | 473 kts | 35° |
| 2026-05-04 15:46 | 46.87449 | -1.46057 | 35969 ft | 473 kts | 35° |
| 2026-05-04 15:46 | 46.92920 | -1.40698 | 35971 ft | 473 kts | 35° |
| 2026-05-04 15:47 | 46.98114 | -1.34932 | 35974 ft | 470 kts | 47° |
| 2026-05-04 15:47 | 47.02508 | -1.27864 | 35978 ft | 469 kts | 50° |
| 2026-05-04 15:48 | 47.06868 | -1.20743 | 35959 ft | 469 kts | 50° |
| 2026-05-04 15:48 | 47.13410 | -1.10020 | 35960 ft | 470 kts | 50° |
| 2026-05-04 15:49 | 47.17764 | -1.02856 | 35968 ft | 470 kts | 50° |
| 2026-05-04 15:49 | 47.22117 | -0.95674 | 35975 ft | 470 kts | 50° |
| 2026-05-04 15:50 | 47.26461 | -0.88486 | 35981 ft | 470 kts | 50° |
| 2026-05-04 15:50 | 47.30807 | -0.81286 | 35964 ft | 470 kts | 51° |
| 2026-05-04 15:51 | 47.35152 | -0.74057 | 35960 ft | 471 kts | 51° |
| 2026-05-04 15:51 | 47.39500 | -0.66798 | 35960 ft | 472 kts | 51° |
| 2026-05-04 15:52 | 47.43916 | -0.59626 | 35958 ft | 473 kts | 44° |
| 2026-05-04 15:52 | 47.49117 | -0.53640 | 35952 ft | 474 kts | 38° |
| 2026-05-04 15:53 | 47.54410 | -0.47811 | 35948 ft | 474 kts | 38° |
| 2026-05-04 15:53 | 47.59691 | -0.41952 | 35952 ft | 474 kts | 38° |
| 2026-05-04 15:54 | 47.64972 | -0.36082 | 35955 ft | 474 kts | 38° |
| 2026-05-04 15:54 | 47.70255 | -0.30210 | 35961 ft | 474 kts | 38° |
| 2026-05-04 15:55 | 47.75485 | -0.24392 | 35965 ft | 475 kts | 38° |
| 2026-05-04 15:55 | 47.80788 | -0.18467 | 35976 ft | 474 kts | 38° |
| 2026-05-04 15:56 | 47.86067 | -0.12544 | 35983 ft | 475 kts | 38° |
| 2026-05-04 15:56 | 47.91343 | -0.06614 | 35984 ft | 475 kts | 38° |
| 2026-05-04 15:57 | 47.96616 | -0.00666 | 35974 ft | 475 kts | 38° |
| 2026-05-04 15:57 | 48.01887 | 0.05294 | 35982 ft | 475 kts | 38° |
| 2026-05-04 15:58 | 48.07154 | 0.11245 | 35992 ft | 474 kts | 38° |
| 2026-05-04 15:58 | 48.12411 | 0.17197 | 35990 ft | 473 kts | 38° |
| 2026-05-04 15:59 | 48.17649 | 0.23161 | 35996 ft | 473 kts | 38° |
| 2026-05-04 15:59 | 48.22875 | 0.29145 | 35998 ft | 473 kts | 38° |
| 2026-05-04 16:00 | 48.28101 | 0.35125 | 36006 ft | 472 kts | 38° |
| 2026-05-04 16:00 | 48.33313 | 0.41092 | 36001 ft | 471 kts | 38° |
| 2026-05-04 16:01 | 48.38490 | 0.47053 | 35982 ft | 471 kts | 38° |
| 2026-05-04 16:01 | 48.43727 | 0.53103 | 35986 ft | 472 kts | 38° |
| 2026-05-04 16:02 | 48.48927 | 0.59120 | 35988 ft | 471 kts | 38° |
| 2026-05-04 16:03 | 48.56724 | 0.68159 | 35995 ft | 471 kts | 39° |
| 2026-05-04 16:03 | 48.61907 | 0.74198 | 35984 ft | 471 kts | 39° |
| 2026-05-04 16:04 | 48.67090 | 0.80256 | 35990 ft | 470 kts | 39° |
| 2026-05-04 16:04 | 48.74845 | 0.89339 | 35978 ft | 470 kts | 39° |
| 2026-05-04 16:05 | 48.80040 | 0.95356 | 35967 ft | 470 kts | 38° |
| 2026-05-04 16:06 | 48.87865 | 1.04323 | 35953 ft | 470 kts | 38° |
| 2026-05-04 16:07 | 48.97392 | 1.15345 | 35979 ft | 470 kts | 38° |
| 2026-05-04 16:08 | 49.07383 | 1.28140 | 35980 ft | 469 kts | 45° |
| 2026-05-04 16:09 | 49.19243 | 1.45259 | 35959 ft | 470 kts | 45° |
| 2026-05-04 16:10 | 49.28716 | 1.59043 | 35964 ft | 470 kts | 45° |
| 2026-05-04 16:11 | 49.38171 | 1.72840 | 35968 ft | 469 kts | 45° |
| 2026-05-04 16:12 | 49.52291 | 1.93643 | 35972 ft | 469 kts | 45° |
| 2026-05-04 16:13 | 49.61692 | 2.07554 | 35975 ft | 468 kts | 45° |
| 2026-05-04 16:14 | 49.71022 | 2.21475 | 35964 ft | 468 kts | 45° |
| 2026-05-04 16:16 | 49.82703 | 2.38985 | 35945 ft | 468 kts | 45° |
| 2026-05-04 16:17 | 49.94383 | 2.56653 | 35949 ft | 468 kts | 46° |
| 2026-05-04 16:18 | 50.03656 | 2.70752 | 35950 ft | 468 kts | 46° |
| 2026-05-04 16:19 | 50.15262 | 2.88514 | 35945 ft | 468 kts | 46° |
| 2026-05-04 16:20 | 50.26846 | 3.06385 | 35950 ft | 468 kts | 46° |
| 2026-05-04 16:22 | 50.38404 | 3.24316 | 35934 ft | 468 kts | 43° |
| 2026-05-04 16:22 | 50.46665 | 3.32371 | 35936 ft | 469 kts | 26° |
| 2026-05-04 16:23 | 50.55510 | 3.39094 | 35940 ft | 470 kts | 24° |
| 2026-05-04 16:25 | 50.73491 | 3.51269 | 35957 ft | 470 kts | 24° |
| 2026-05-04 16:26 | 50.94402 | 3.65900 | 35964 ft | 469 kts | 24° |
| 2026-05-04 16:28 | 51.09270 | 3.76616 | 35963 ft | 469 kts | 24° |
| 2026-05-04 16:29 | 51.30074 | 3.91738 | 35958 ft | 470 kts | 24° |
| 2026-05-04 16:31 | 51.44931 | 4.02667 | 35965 ft | 470 kts | 26° |
| 2026-05-04 16:31 | 51.52534 | 4.12177 | 35929 ft | 464 kts | 47° |
| 2026-05-04 16:32 | 51.59310 | 4.23330 | 34927 ft | 467 kts | 47° |
| 2026-05-04 16:33 | 51.68446 | 4.38410 | 34969 ft | 471 kts | 47° |
| 2026-05-04 16:34 | 51.75302 | 4.49781 | 34982 ft | 472 kts | 47° |
| 2026-05-04 16:35 | 51.88968 | 4.72650 | 34950 ft | 471 kts | 47° |
| 2026-05-04 16:36 | 51.95784 | 4.84114 | 34956 ft | 471 kts | 47° |
| 2026-05-04 16:37 | 52.02564 | 4.95606 | 34932 ft | 473 kts | 47° |
| 2026-05-04 16:38 | 52.11676 | 5.11099 | 34949 ft | 475 kts | 47° |
| 2026-05-04 16:39 | 52.24223 | 5.28652 | 34954 ft | 477 kts | 40° |
| 2026-05-04 16:40 | 52.34372 | 5.42636 | 34958 ft | 477 kts | 40° |
| 2026-05-04 16:41 | 52.47072 | 5.60231 | 34955 ft | 479 kts | 40° |
| 2026-05-04 16:43 | 52.59790 | 5.77979 | 34971 ft | 480 kts | 40° |
| 2026-05-04 16:43 | 52.67407 | 5.88682 | 34992 ft | 479 kts | 39° |
| 2026-05-04 16:45 | 52.82584 | 6.10145 | 34971 ft | 479 kts | 39° |
| 2026-05-04 16:46 | 52.95214 | 6.28179 | 34997 ft | 479 kts | 39° |
| 2026-05-04 16:47 | 53.05270 | 6.42661 | 35007 ft | 478 kts | 39° |
| 2026-05-04 16:48 | 53.15271 | 6.57106 | 35022 ft | 477 kts | 39° |
| 2026-05-04 16:49 | 53.25250 | 6.71661 | 34983 ft | 476 kts | 39° |
| 2026-05-04 16:50 | 53.35226 | 6.86278 | 34990 ft | 477 kts | 39° |
| 2026-05-04 16:51 | 53.42702 | 6.97296 | 34992 ft | 477 kts | 39° |
| 2026-05-04 16:52 | 53.52652 | 7.12062 | 35002 ft | 477 kts | 39° |
| 2026-05-04 16:53 | 53.60103 | 7.23165 | 35017 ft | 476 kts | 39° |
| 2026-05-04 16:54 | 53.69978 | 7.37974 | 35003 ft | 477 kts | 39° |
| 2026-05-04 16:55 | 53.83972 | 7.59118 | 35025 ft | 476 kts | 39° |
| 2026-05-04 16:56 | 53.96277 | 7.77895 | 35019 ft | 475 kts | 39° |
| 2026-05-04 16:57 | 54.03597 | 7.89123 | 35032 ft | 474 kts | 39° |
| 2026-05-04 16:58 | 54.10789 | 8.00683 | 35018 ft | 477 kts | 51° |
| 2026-05-04 16:58 | 54.12684 | 8.05329 | 35019 ft | 477 kts | 54° |
| 2026-05-04 17:00 | 54.23760 | 8.33630 | 35030 ft | 477 kts | 54° |
| 2026-05-04 17:01 | 54.32916 | 8.57225 | 35015 ft | 476 kts | 54° |
| 2026-05-04 17:02 | 54.40212 | 8.76192 | 35000 ft | 477 kts | 54° |
| 2026-05-04 17:03 | 54.45663 | 8.90491 | 35023 ft | 476 kts | 55° |
| 2026-05-04 17:03 | 54.51061 | 9.04698 | 35018 ft | 475 kts | 55° |
| 2026-05-04 17:04 | 54.58245 | 9.23764 | 34996 ft | 474 kts | 55° |
| 2026-05-04 17:05 | 54.61836 | 9.33338 | 34618 ft | 476 kts | 55° |
| 2026-05-04 17:05 | 54.65436 | 9.42963 | 34172 ft | 477 kts | 55° |
| 2026-05-04 17:06 | 54.69008 | 9.52560 | 33647 ft | 475 kts | 55° |
| 2026-05-04 17:06 | 54.70796 | 9.57379 | 33357 ft | 476 kts | 55° |
| 2026-05-04 17:07 | 54.74376 | 9.67058 | 32829 ft | 479 kts | 56° |
| 2026-05-04 17:07 | 54.75586 | 9.70340 | 32633 ft | 479 kts | 56° |
| 2026-05-04 17:07 | 54.77950 | 9.76769 | 32285 ft | 478 kts | 56° |
| 2026-05-04 17:07 | 54.79737 | 9.81633 | 32007 ft | 479 kts | 55° |
| 2026-05-04 17:08 | 54.81531 | 9.86520 | 31757 ft | 481 kts | 55° |
| 2026-05-04 17:08 | 54.85124 | 9.96332 | 31246 ft | 481 kts | 55° |
| 2026-05-04 17:08 | 54.86908 | 10.01226 | 31030 ft | 475 kts | 56° |
| 2026-05-04 17:09 | 54.88654 | 10.06037 | 30770 ft | 468 kts | 56° |
| 2026-05-04 17:09 | 54.90384 | 10.10811 | 30527 ft | 465 kts | 56° |
| 2026-05-04 17:09 | 54.92102 | 10.15556 | 30279 ft | 463 kts | 56° |
| 2026-05-04 17:10 | 54.95496 | 10.24953 | 29738 ft | 460 kts | 56° |
| 2026-05-04 17:10 | 55.00555 | 10.39037 | 28936 ft | 454 kts | 56° |
| 2026-05-04 17:11 | 55.03890 | 10.48351 | 28967 ft | 453 kts | 56° |
| 2026-05-04 17:11 | 55.07240 | 10.57725 | 27966 ft | 452 kts | 57° |
| 2026-05-04 17:12 | 55.08885 | 10.62352 | 27520 ft | 455 kts | 57° |
| 2026-05-04 17:12 | 55.12276 | 10.71917 | 26391 ft | 464 kts | 57° |
| 2026-05-04 17:13 | 55.17291 | 10.86212 | 24823 ft | 455 kts | 57° |
| 2026-05-04 17:14 | 55.22021 | 11.00396 | 23296 ft | 445 kts | 58° |
| 2026-05-04 17:14 | 55.23568 | 11.05089 | 22715 ft | 442 kts | 58° |
| 2026-05-04 17:14 | 55.26645 | 11.14390 | 21587 ft | 438 kts | 58° |
| 2026-05-04 17:15 | 55.28169 | 11.18991 | 21062 ft | 435 kts | 58° |
| 2026-05-04 17:15 | 55.31168 | 11.28051 | 20006 ft | 429 kts | 58° |
| 2026-05-04 17:16 | 55.34139 | 11.37085 | 18974 ft | 425 kts | 58° |
| 2026-05-04 17:16 | 55.38518 | 11.50465 | 17371 ft | 416 kts | 58° |
| 2026-05-04 17:17 | 55.39955 | 11.54861 | 16975 ft | 413 kts | 58° |
| 2026-05-04 17:17 | 55.43341 | 11.65256 | 15946 ft | 408 kts | 58° |
| 2026-05-04 17:18 | 55.44747 | 11.69584 | 15443 ft | 404 kts | 58° |
| 2026-05-04 17:18 | 55.47516 | 11.78139 | 14476 ft | 400 kts | 58° |
| 2026-05-04 17:19 | 55.50242 | 11.86604 | 13486 ft | 394 kts | 58° |
| 2026-05-04 17:19 | 55.52917 | 11.94941 | 12496 ft | 387 kts | 58° |
| 2026-05-04 17:20 | 55.55541 | 12.03130 | 11516 ft | 379 kts | 58° |
| 2026-05-04 17:20 | 55.58093 | 12.11125 | 10804 ft | 359 kts | 58° |
| 2026-05-04 17:20 | 55.59260 | 12.14802 | 10599 ft | 328 kts | 58° |
| 2026-05-04 17:21 | 55.61376 | 12.21481 | 9935 ft | 308 kts | 58° |
| 2026-05-04 17:21 | 55.63486 | 12.28123 | 9204 ft | 306 kts | 58° |
| 2026-05-04 17:22 | 55.64525 | 12.31408 | 8802 ft | 306 kts | 58° |
| 2026-05-04 17:22 | 55.65556 | 12.34677 | 8409 ft | 302 kts | 58° |
| 2026-05-04 17:23 | 55.68594 | 12.44313 | 7274 ft | 296 kts | 58° |
| 2026-05-04 17:23 | 55.69588 | 12.47488 | 6907 ft | 293 kts | 58° |
| 2026-05-04 17:23 | 55.71534 | 12.53681 | 6145 ft | 275 kts | 58° |
| 2026-05-04 17:24 | 55.72443 | 12.56593 | 5800 ft | 268 kts | 58° |
| 2026-05-04 17:24 | 55.75283 | 12.64890 | 4652 ft | 255 kts | 43° |
| 2026-05-04 17:25 | 55.76561 | 12.67041 | 4259 ft | 252 kts | 43° |
| 2026-05-04 17:25 | 55.78505 | 12.72181 | 3999 ft | 242 kts | 55° |
| 2026-05-04 17:26 | 55.80140 | 12.76993 | 4013 ft | 222 kts | 55° |
| 2026-05-04 17:26 | 55.80972 | 12.84654 | 4005 ft | 227 kts | 124° |
| 2026-05-04 17:27 | 55.78486 | 12.87285 | 3811 ft | 199 kts | 177° |
| 2026-05-04 17:27 | 55.75851 | 12.86728 | 3362 ft | 189 kts | 198° |
| 2026-05-04 17:28 | 55.73745 | 12.84212 | 2991 ft | 183 kts | 225° |
| 2026-05-04 17:29 | 55.70926 | 12.79806 | 2259 ft | 169 kts | 226° |
| 2026-05-04 17:29 | 55.68398 | 12.75861 | 1613 ft | 160 kts | 226° |
| 2026-05-04 17:30 | 55.65993 | 12.72136 | 952 ft | 140 kts | 226° |
| 2026-05-04 17:31 | 55.64565 | 12.69914 | 584 ft | 134 kts | 225° |
| 2026-05-04 17:31 | 55.62431 | 12.66604 | 82 ft | 137 kts | 226° |
| 2026-05-04 17:32 | 55.61011 | 12.64402 | 1323 ft | 140 kts | 225° |
| 2026-05-04 17:33 | 55.58446 | 12.60404 | 2494 ft | 187 kts | 225° |
| 2026-05-04 17:33 | 55.57435 | 12.58821 | 2838 ft | 204 kts | 225° |
| 2026-05-04 17:34 | 55.54112 | 12.53454 | 3015 ft | 219 kts | 225° |
| 2026-05-04 17:34 | 55.52989 | 12.51636 | 3015 ft | 219 kts | 225° |
| 2026-05-04 17:35 | 55.49621 | 12.46192 | 3015 ft | 220 kts | 225° |
| 2026-05-04 17:35 | 55.47357 | 12.42560 | 3013 ft | 220 kts | 225° |
| 2026-05-04 17:35 | 55.46225 | 12.40745 | 3010 ft | 220 kts | 225° |
| 2026-05-04 17:36 | 55.45090 | 12.38942 | 3020 ft | 220 kts | 225° |
| 2026-05-04 17:36 | 55.43800 | 12.37508 | 3019 ft | 225 kts | 200° |
| 2026-05-04 17:36 | 55.42222 | 12.37501 | 3018 ft | 233 kts | 166° |
| 2026-05-04 17:36 | 55.40860 | 12.39026 | 3020 ft | 237 kts | 132° |
| 2026-05-04 17:37 | 55.40161 | 12.41611 | 3021 ft | 236 kts | 98° |
| 2026-05-04 17:37 | 55.40123 | 12.44484 | 3021 ft | 235 kts | 86° |
| 2026-05-04 17:37 | 55.40205 | 12.47356 | 3018 ft | 236 kts | 85° |
| 2026-05-04 17:37 | 55.40288 | 12.50236 | 3015 ft | 235 kts | 85° |
| 2026-05-04 17:38 | 55.40581 | 12.53033 | 3012 ft | 232 kts | 66° |
| 2026-05-04 17:38 | 55.41497 | 12.55312 | 3017 ft | 228 kts | 40° |
| 2026-05-04 17:38 | 55.42681 | 12.57173 | 3008 ft | 228 kts | 38° |
| 2026-05-04 17:38 | 55.43866 | 12.59017 | 3014 ft | 227 kts | 38° |
| 2026-05-04 17:39 | 55.46237 | 12.62702 | 3010 ft | 228 kts | 38° |
| 2026-05-04 17:39 | 55.47425 | 12.64553 | 3012 ft | 228 kts | 39° |
| 2026-05-04 17:39 | 55.48228 | 12.65804 | 3001 ft | 239 kts | 38° |
| 2026-05-04 17:40 | 55.49490 | 12.67769 | 3000 ft | 243 kts | 39° |
| 2026-05-04 17:40 | 55.50759 | 12.69751 | 3011 ft | 244 kts | 39° |
| 2026-05-04 17:40 | 55.52027 | 12.71737 | 3010 ft | 243 kts | 38° |
| 2026-05-04 17:40 | 55.53296 | 12.73725 | 3009 ft | 244 kts | 39° |
| 2026-05-04 17:41 | 55.54564 | 12.75714 | 3013 ft | 244 kts | 39° |
| 2026-05-04 17:41 | 55.55834 | 12.77710 | 3008 ft | 244 kts | 39° |
| 2026-05-04 17:41 | 55.57098 | 12.79699 | 3009 ft | 243 kts | 39° |
| 2026-05-04 17:41 | 55.58361 | 12.81691 | 3007 ft | 244 kts | 39° |
| 2026-05-04 17:42 | 55.59623 | 12.83682 | 3005 ft | 243 kts | 39° |
| 2026-05-04 17:42 | 55.60881 | 12.85670 | 3007 ft | 240 kts | 39° |
| 2026-05-04 17:42 | 55.62109 | 12.87612 | 3008 ft | 235 kts | 39° |
| 2026-05-04 17:42 | 55.63324 | 12.89532 | 3011 ft | 233 kts | 38° |
| 2026-05-04 17:43 | 55.64562 | 12.91368 | 3012 ft | 231 kts | 35° |
| 2026-05-04 17:43 | 55.65944 | 12.92717 | 3010 ft | 225 kts | 10° |
| 2026-05-04 17:43 | 55.67474 | 12.92686 | 3007 ft | 220 kts | 348° |
| 2026-05-04 17:43 | 55.69008 | 12.92672 | 3011 ft | 224 kts | 6° |
| 2026-05-04 17:44 | 55.70536 | 12.93269 | 3010 ft | 225 kts | 10° |
| 2026-05-04 17:44 | 55.72069 | 12.93624 | 3003 ft | 221 kts | 350° |
| 2026-05-04 17:44 | 55.73438 | 12.92561 | 3009 ft | 216 kts | 317° |
| 2026-05-04 17:44 | 55.74204 | 12.90326 | 3010 ft | 214 kts | 284° |
| 2026-05-04 17:45 | 55.74273 | 12.87802 | 3012 ft | 196 kts | 265° |
| 2026-05-04 17:45 | 55.73936 | 12.85559 | 3013 ft | 184 kts | 250° |
| 2026-05-04 17:45 | 55.73281 | 12.83622 | 2847 ft | 184 kts | 235° |
| 2026-05-04 17:45 | 55.72365 | 12.82055 | 2627 ft | 182 kts | 225° |
| 2026-05-04 17:46 | 55.71417 | 12.80573 | 2387 ft | 179 kts | 225° |
| 2026-05-04 17:46 | 55.70532 | 12.79193 | 2155 ft | 166 kts | 226° |
| 2026-05-04 17:46 | 55.69681 | 12.77866 | 1925 ft | 160 kts | 226° |
| 2026-05-04 17:46 | 55.68850 | 12.76568 | 1703 ft | 159 kts | 226° |
| 2026-05-04 17:47 | 55.68021 | 12.75280 | 1510 ft | 158 kts | 224° |
| 2026-05-04 17:47 | 55.67187 | 12.74012 | 1367 ft | 158 kts | 223° |
| 2026-05-04 17:47 | 55.66358 | 12.72727 | 1158 ft | 158 kts | 225° |
| 2026-05-04 17:47 | 55.65560 | 12.71460 | 890 ft | 148 kts | 226° |
| 2026-05-04 17:48 | 55.64810 | 12.70298 | 642 ft | 138 kts | 224° |
| 2026-05-04 17:48 | 55.64089 | 12.69211 | 465 ft | 135 kts | 225° |
| 2026-05-04 17:48 | 55.63380 | 12.68106 | 294 ft | 137 kts | 224° |
| 2026-05-04 17:48 | 55.62671 | 12.66983 | 104 ft | 136 kts | 225° |
| 2026-05-04 17:49 | 55.61975 | 12.65889 | 28 ft | 127 kts | 224° |
| 2026-05-04 17:49 | 55.61372 | 12.64938 | 19 ft | 98 kts | 221° |
| 2026-05-04 17:49 | 55.60988 | 12.64345 | 17 ft | 48 kts | 221° |
| 2026-05-04 17:49 | 55.60819 | 12.64084 | 19 ft | 34 kts | 220° |
| 2026-05-04 17:50 | 55.60691 | 12.63787 | 20 ft | 24 kts | 298° |
| 2026-05-04 17:50 | 55.60733 | 12.63696 | 17 ft | 0 kts | 309° |
| 2026-05-04 17:50 | 55.60751 | 12.63659 | 17 ft | 9 kts | 310° |
| 2026-05-04 17:51 | 55.60797 | 12.63581 | 17 ft | 9 kts | 328° |
| 2026-05-04 17:51 | 55.60843 | 12.63608 | 17 ft | 7 kts | 35° |
| 2026-05-04 17:51 | 55.60921 | 12.63700 | 17 ft | 22 kts | 33° |
| 2026-05-04 17:51 | 55.61054 | 12.63854 | 17 ft | 23 kts | 33° |
| 2026-05-04 17:52 | 55.61187 | 12.64007 | 18 ft | 23 kts | 33° |
| 2026-05-04 17:52 | 55.61320 | 12.64159 | 18 ft | 23 kts | 33° |
| 2026-05-04 17:52 | 55.61451 | 12.64311 | 17 ft | 22 kts | 33° |
| 2026-05-04 17:52 | 55.61581 | 12.64459 | 17 ft | 22 kts | 30° |
| 2026-05-04 17:53 | 55.61710 | 12.64571 | 17 ft | 17 kts | 352° |
| 2026-05-04 17:53 | 55.61784 | 12.64541 | 17 ft | 12 kts | 355° |
| 2026-05-04 17:53 | 55.61864 | 12.64518 | 18 ft | 12 kts | 350° |
| 2026-05-04 17:53 | 55.61946 | 12.64495 | 19 ft | 12 kts | 350° |
| 2026-05-04 17:54 | 55.62029 | 12.64467 | 19 ft | 12 kts | 349° |
| 2026-05-04 17:54 | 55.62112 | 12.64437 | 17 ft | 12 kts | 348° |
| 2026-05-04 17:54 | 55.62205 | 12.64407 | 15 ft | 17 kts | 350° |
| 2026-05-04 17:54 | 55.62287 | 12.64258 | 15 ft | 19 kts | 302° |
| 2026-05-04 17:55 | 55.62381 | 12.64000 | 17 ft | 31 kts | 303° |
| 2026-05-04 17:55 | 55.62495 | 12.63794 | 17 ft | 13 kts | 338° |
| 2026-05-04 17:55 | 55.62570 | 12.63769 | 17 ft | 10 kts | 2° |
| 2026-05-04 17:55 | 55.62610 | 12.63785 | 17 ft | 0 kts | 21° |
| 2026-05-04 17:56 | 55.62639 | 12.63806 | 17 ft | 6 kts | 23° |
| 2026-05-04 17:57 | 55.62692 | 12.63864 | 17 ft | 12 kts | 33° |
| 2026-05-04 17:57 | 55.62760 | 12.63943 | 17 ft | 11 kts | 33° |
| 2026-05-04 17:57 | 55.62823 | 12.63982 | 17 ft | 5 kts | 11° |
| 2026-05-04 17:57 | 55.62851 | 12.63992 | 17 ft | 1 kts | 12° |
| 2026-05-04 17:58 | 55.62858 | 12.63994 | 17 ft | 1 kts | 11° |
| 2026-05-04 17:58 | 55.62865 | 12.63997 | 17 ft | 2 kts | 11° |
| 2026-05-04 17:58 | 55.62873 | 12.64000 | 17 ft | 0 kts | 12° |